Shirley P. Settoon — WDF9252 — position and weather

sailwx.info

Track history (hours):
 
Tides and Currents Weather Stations Pressure Air Temp Water Temp Dewpoint Dewpoint Depression Visibility Wind Speed Wind Dir Waves Ship Positions

Shirley P. Settoon

Owner: Settoon Towing, LLC, Houma, LA. More information available from US FCC via Universal Licensing System and Coast Guard Vessel Documentation Center.

Last reported at 2016-May-02 16:33 UTC. Time now 2016-May-03 20:09 UTC.
Position N 29°56' W 090°11'.

Length 32 m.

Type: Towing. MMSI: 367503240.

Date/timePositionNaut miles runAvg speedWind from/ knotsBaromVisibWave heightAir tempDewpointWater temp
2016-May-02 16:33N 29°56' W 090°11'4 3.7
2016-May-02 15:32N 29°55' W 090°07'5 5.1
2016-May-02 14:33N 29°57' W 090°02'4 3.6
2016-May-02 13:33N 29°55' W 089°58'1 0.6
2016-May-02 12:33N 29°54' W 089°59'1 0.5
2016-May-02 11:33N 29°54' W 089°59'2 2.3
2016-May-02 10:33N 29°52' W 090°01'1 0.7
2016-May-02 09:33N 29°51' W 090°01'0 0.0
2016-May-02 08:33N 29°51' W 090°01'0 0.0
2016-May-02 07:33N 29°51' W 090°01'0 0.0
2016-May-02 06:33N 29°51' W 090°01'0 0.0
2016-May-02 05:33N 29°51' W 090°01'0 0.0
2016-May-02 04:33N 29°51' W 090°01'0 0.0
2016-May-02 03:33N 29°51' W 090°01'0 0.0
2016-May-02 02:33N 29°51' W 090°01'0 0.0
2016-May-02 01:33N 29°51' W 090°01'0 0.0
2016-May-02 00:33N 29°51' W 090°01'0 0.0
2016-May-01 23:33N 29°51' W 090°01'0 0.0
2016-May-01 22:33N 29°51' W 090°01'0 0.0
2016-May-01 21:33N 29°51' W 090°01'0 0.0
2016-May-01 20:33N 29°51' W 090°01'3 3.2
2016-May-01 19:33N 29°49' W 090°04'4 3.8
2016-May-01 18:24N 29°46' W 090°07'2 2.8
2016-May-01 17:33N 29°44' W 090°09'21 4.2
2016-May-01 12:33N 29°34' W 090°30'6 5.8
2016-May-01 11:33N 29°35' W 090°36'5 5.2
2016-May-01 10:33N 29°37' W 090°42'4 3.9
2016-May-01 09:33N 29°34' W 090°45'1 1.1
2016-May-01 08:33N 29°33' W 090°45'1 0.7
2016-May-01 07:33N 29°32' W 090°46'113 4.0
2016-Apr-30 03:30N 29°57' W 092°52'7 5.3
2016-Apr-30 02:16N 29°56' W 092°60'2 3.2
2016-Apr-30 01:30N 29°56' W 093°02'0 0.0
2016-Apr-30 00:33N 29°56' W 093°02'0 0.0
2016-Apr-29 23:30N 29°56' W 093°02'0 0.0
2016-Apr-29 22:28N 29°56' W 093°02'0 0.0
2016-Apr-29 21:33N 29°56' W 093°02'0 0.0
2016-Apr-29 20:30N 29°56' W 093°02'0 0.0
2016-Apr-29 19:32N 29°56' W 093°02'0 0.0
2016-Apr-29 18:08N 29°56' W 093°02'0 0.0
2016-Apr-29 10:32N 29°56' W 093°02'0 0.0
2016-Apr-29 08:22N 29°56' W 093°02'0 0.0
2016-Apr-29 07:33N 29°56' W 093°02'0 0.0
2016-Apr-29 06:34N 29°56' W 093°02'5 1.5
2016-Apr-29 03:34N 29°56' W 093°07'5 4.8
2016-Apr-29 02:33N 29°59' W 093°12'4 4.3
2016-Apr-29 01:33N 30°02' W 093°15'4 4.4
2016-Apr-29 00:33N 30°06' W 093°18'0 0.4
2016-Apr-28 23:33N 30°06' W 093°18'0 0.0
2016-Apr-28 22:33N 30°06' W 093°18'1 0.7
2016-Apr-28 21:33N 30°06' W 093°19'0 0.1
2016-Apr-28 20:33N 30°06' W 093°19'0 0.0
2016-Apr-28 19:33N 30°06' W 093°19'0 0.0
2016-Apr-28 18:33N 30°06' W 093°19'0 0.0
2016-Apr-28 17:33N 30°06' W 093°19'2 1.5
2016-Apr-28 16:33N 30°05' W 093°18'1 1.0
2016-Apr-28 15:33N 30°05' W 093°17'0 0.0
2016-Apr-28 14:33N 30°05' W 093°17'0 0.1
2016-Apr-28 13:33N 30°05' W 093°17'0 0.1
2016-Apr-28 12:33N 30°05' W 093°17'0 0.1
2016-Apr-28 11:33N 30°05' W 093°17'3 3.4
2016-Apr-28 10:33N 30°02' W 093°14'5 5.4
2016-Apr-28 09:33N 29°57' W 093°11'4 4.3
2016-Apr-28 08:33N 29°56' W 093°06'5 5.3
2016-Apr-28 07:33N 29°56' W 092°60'113 4.5
2016-Apr-27 06:26N 29°32' W 090°52'5 5.7
2016-Apr-27 05:33N 29°32' W 090°46'4 4.4
2016-Apr-27 04:33N 29°35' W 090°43'3 3.4
2016-Apr-27 03:33N 29°36' W 090°39'5 5.1
2016-Apr-27 02:33N 29°34' W 090°33'24 4.9
2016-Apr-26 21:33N 29°45' W 090°08'4 3.6
2016-Apr-26 20:33N 29°46' W 090°04'4 4.2
2016-Apr-26 19:33N 29°50' W 090°03'4 3.9
2016-Apr-26 18:33N 29°53' W 089°60'2 2.1
2016-Apr-26 17:33N 29°55' W 089°58'0 0.4
2016-Apr-26 16:33N 29°55' W 089°58'0 0.0
2016-Apr-26 15:33N 29°55' W 089°58'0 0.0
2016-Apr-26 14:33N 29°55' W 089°58'0 0.0
2016-Apr-26 13:33N 29°55' W 089°58'0 0.0
2016-Apr-26 12:33N 29°55' W 089°58'0 0.0
2016-Apr-26 11:33N 29°55' W 089°58'0 0.1
2016-Apr-26 10:33N 29°55' W 089°58'3 2.9
2016-Apr-26 09:33N 29°57' W 090°01'6 6.3
2016-Apr-26 08:33N 29°55' W 090°08'  
2016-Apr-23 02:16N 29°57' W 090°14'3 3.9
2016-Apr-23 01:33N 29°56' W 090°10'4 4.0
2016-Apr-23 00:33N 29°55' W 090°06'5 4.9
2016-Apr-22 23:33N 29°57' W 090°02'3 3.4
2016-Apr-22 22:32N 29°55' W 089°58'2 1.6
2016-Apr-22 21:33N 29°54' W 089°60'0 0.0
2016-Apr-22 20:33N 29°54' W 089°60'0 0.0
2016-Apr-22 19:33N 29°54' W 089°60'0 0.0
2016-Apr-22 18:33N 29°54' W 089°60'0 0.0
2016-Apr-22 17:33N 29°54' W 089°60'0 0.0
2016-Apr-22 16:33N 29°54' W 089°60'  
Track history (hours):
 
Tides and Currents Weather Stations Pressure Air Temp Water Temp Dewpoint Dewpoint Depression Visibility Wind Speed Wind Dir Waves Ship Positions

Shirley P. Settoon

Owner: Settoon Towing, LLC, Houma, LA. More information available from US FCC via Universal Licensing System and Coast Guard Vessel Documentation Center.

Last reported at 2016-May-02 16:33 UTC. Time now 2016-May-03 20:09 UTC.
Position N 29°56' W 090°11'.

Length 32 m.

Type: Towing. MMSI: 367503240.

Date/timePositionNaut miles runAvg speedWind from/ knotsBaromVisibWave heightAir tempDewpointWater temp
2016-May-02 16:33N 29°56' W 090°11'4 3.7
2016-May-02 15:32N 29°55' W 090°07'5 5.1
2016-May-02 14:33N 29°57' W 090°02'4 3.6
2016-May-02 13:33N 29°55' W 089°58'1 0.6
2016-May-02 12:33N 29°54' W 089°59'1 0.5
2016-May-02 11:33N 29°54' W 089°59'2 2.3
2016-May-02 10:33N 29°52' W 090°01'1 0.7
2016-May-02 09:33N 29°51' W 090°01'0 0.0
2016-May-02 08:33N 29°51' W 090°01'0 0.0
2016-May-02 07:33N 29°51' W 090°01'0 0.0
2016-May-02 06:33N 29°51' W 090°01'0 0.0
2016-May-02 05:33N 29°51' W 090°01'0 0.0
2016-May-02 04:33N 29°51' W 090°01'0 0.0
2016-May-02 03:33N 29°51' W 090°01'0 0.0
2016-May-02 02:33N 29°51' W 090°01'0 0.0
2016-May-02 01:33N 29°51' W 090°01'0 0.0
2016-May-02 00:33N 29°51' W 090°01'0 0.0
2016-May-01 23:33N 29°51' W 090°01'0 0.0
2016-May-01 22:33N 29°51' W 090°01'0 0.0
2016-May-01 21:33N 29°51' W 090°01'0 0.0
2016-May-01 20:33N 29°51' W 090°01'3 3.2
2016-May-01 19:33N 29°49' W 090°04'4 3.8
2016-May-01 18:24N 29°46' W 090°07'2 2.8
2016-May-01 17:33N 29°44' W 090°09'21 4.2
2016-May-01 12:33N 29°34' W 090°30'6 5.8
2016-May-01 11:33N 29°35' W 090°36'5 5.2
2016-May-01 10:33N 29°37' W 090°42'4 3.9
2016-May-01 09:33N 29°34' W 090°45'1 1.1
2016-May-01 08:33N 29°33' W 090°45'1 0.7
2016-May-01 07:33N 29°32' W 090°46'113 4.0
2016-Apr-30 03:30N 29°57' W 092°52'7 5.3
2016-Apr-30 02:16N 29°56' W 092°60'2 3.2
2016-Apr-30 01:30N 29°56' W 093°02'0 0.0
2016-Apr-30 00:33N 29°56' W 093°02'0 0.0
2016-Apr-29 23:30N 29°56' W 093°02'0 0.0
2016-Apr-29 22:28N 29°56' W 093°02'0 0.0
2016-Apr-29 21:33N 29°56' W 093°02'0 0.0
2016-Apr-29 20:30N 29°56' W 093°02'0 0.0
2016-Apr-29 19:32N 29°56' W 093°02'0 0.0
2016-Apr-29 18:08N 29°56' W 093°02'0 0.0
2016-Apr-29 10:32N 29°56' W 093°02'0 0.0
2016-Apr-29 08:22N 29°56' W 093°02'0 0.0
2016-Apr-29 07:33N 29°56' W 093°02'0 0.0
2016-Apr-29 06:34N 29°56' W 093°02'5 1.5
2016-Apr-29 03:34N 29°56' W 093°07'5 4.8
2016-Apr-29 02:33N 29°59' W 093°12'4 4.3
2016-Apr-29 01:33N 30°02' W 093°15'4 4.4
2016-Apr-29 00:33N 30°06' W 093°18'0 0.4
2016-Apr-28 23:33N 30°06' W 093°18'0 0.0
2016-Apr-28 22:33N 30°06' W 093°18'1 0.7
2016-Apr-28 21:33N 30°06' W 093°19'0 0.1
2016-Apr-28 20:33N 30°06' W 093°19'0 0.0
2016-Apr-28 19:33N 30°06' W 093°19'0 0.0
2016-Apr-28 18:33N 30°06' W 093°19'0 0.0
2016-Apr-28 17:33N 30°06' W 093°19'2 1.5
2016-Apr-28 16:33N 30°05' W 093°18'1 1.0
2016-Apr-28 15:33N 30°05' W 093°17'0 0.0
2016-Apr-28 14:33N 30°05' W 093°17'0 0.1
2016-Apr-28 13:33N 30°05' W 093°17'0 0.1
2016-Apr-28 12:33N 30°05' W 093°17'0 0.1
2016-Apr-28 11:33N 30°05' W 093°17'3 3.4
2016-Apr-28 10:33N 30°02' W 093°14'5 5.4
2016-Apr-28 09:33N 29°57' W 093°11'4 4.3
2016-Apr-28 08:33N 29°56' W 093°06'5 5.3
2016-Apr-28 07:33N 29°56' W 092°60'113 4.5
2016-Apr-27 06:26N 29°32' W 090°52'5 5.7
2016-Apr-27 05:33N 29°32' W 090°46'4 4.4
2016-Apr-27 04:33N 29°35' W 090°43'3 3.4
2016-Apr-27 03:33N 29°36' W 090°39'5 5.1
2016-Apr-27 02:33N 29°34' W 090°33'24 4.9
2016-Apr-26 21:33N 29°45' W 090°08'4 3.6
2016-Apr-26 20:33N 29°46' W 090°04'4 4.2
2016-Apr-26 19:33N 29°50' W 090°03'4 3.9
2016-Apr-26 18:33N 29°53' W 089°60'2 2.1
2016-Apr-26 17:33N 29°55' W 089°58'0 0.4
2016-Apr-26 16:33N 29°55' W 089°58'0 0.0
2016-Apr-26 15:33N 29°55' W 089°58'0 0.0
2016-Apr-26 14:33N 29°55' W 089°58'0 0.0
2016-Apr-26 13:33N 29°55' W 089°58'0 0.0
2016-Apr-26 12:33N 29°55' W 089°58'0 0.0
2016-Apr-26 11:33N 29°55' W 089°58'0 0.1
2016-Apr-26 10:33N 29°55' W 089°58'3 2.9
2016-Apr-26 09:33N 29°57' W 090°01'6 6.3
2016-Apr-26 08:33N 29°55' W 090°08'  
2016-Apr-23 02:16N 29°57' W 090°14'3 3.9
2016-Apr-23 01:33N 29°56' W 090°10'4 4.0
2016-Apr-23 00:33N 29°55' W 090°06'5 4.9
2016-Apr-22 23:33N 29°57' W 090°02'3 3.4
2016-Apr-22 22:32N 29°55' W 089°58'2 1.6
2016-Apr-22 21:33N 29°54' W 089°60'0 0.0
2016-Apr-22 20:33N 29°54' W 089°60'0 0.0
2016-Apr-22 19:33N 29°54' W 089°60'0 0.0
2016-Apr-22 18:33N 29°54' W 089°60'0 0.0
2016-Apr-22 17:33N 29°54' W 089°60'0 0.0
2016-Apr-22 16:33N 29°54' W 089°60'  

Dump ship's entire track history